createdAt,value
2019-02-12T00:01:46.172Z,3.1
2019-02-12T00:16:53.706Z,3
2019-02-12T00:32:09.454Z,3
2019-02-12T00:47:21.030Z,2.9
2019-02-12T01:02:32.880Z,2.9
2019-02-12T01:17:44.182Z,2.9
2019-02-12T01:32:55.804Z,3
2019-02-12T01:48:07.412Z,3.1
2019-02-12T02:03:19.032Z,3.1
2019-02-12T02:18:30.721Z,3
2019-02-12T02:33:40.478Z,3.1
2019-02-12T02:48:53.921Z,3.2
2019-02-12T03:04:05.570Z,3.2
2019-02-12T03:19:17.232Z,3.1
2019-02-12T03:34:21.199Z,3
2019-02-12T03:49:40.473Z,3
2019-02-12T04:04:52.485Z,3
2019-02-12T04:20:03.606Z,2.8
2019-02-12T04:35:15.113Z,2.5
2019-02-12T04:50:26.478Z,2.3
2019-02-12T05:05:37.840Z,2.5
2019-02-12T05:20:49.359Z,2.7
2019-02-12T05:36:00.902Z,2.9
2019-02-12T05:51:07.506Z,2.8
2019-02-12T06:06:24.014Z,2.9
2019-02-12T06:21:35.535Z,2.9
2019-02-12T06:36:47.077Z,2.9
2019-02-12T06:51:58.642Z,2.9
2019-02-12T07:07:10.250Z,3.1
2019-02-12T07:22:22.025Z,3.2
2019-02-12T07:37:33.794Z,3.3
2019-02-12T07:52:45.417Z,3.4
2019-02-12T08:07:54.602Z,3.4
2019-02-12T08:23:08.866Z,3.4
2019-02-12T08:38:20.599Z,3.4
2019-02-12T08:53:32.358Z,3.4
2019-02-12T09:08:35.957Z,3.4
2019-02-12T09:24:00.328Z,3.4
2019-02-12T09:39:07.634Z,3.5
2019-02-12T09:54:19.556Z,4
2019-02-12T10:09:31.632Z,4.4
2019-02-12T10:24:43.749Z,4.3
2019-02-12T10:39:55.812Z,4
2019-02-12T10:55:07.755Z,4
2019-02-12T11:10:19.592Z,3.7
2019-02-12T11:25:26.353Z,4.1
2019-02-12T11:40:43.824Z,4.2
2019-02-12T11:55:55.372Z,3.1
2019-02-12T12:11:06.917Z,2.8
2019-02-12T12:26:08.808Z,3
2019-02-12T12:41:30.045Z,3.1
2019-02-12T12:56:41.750Z,3.5
2019-02-12T13:11:53.464Z,3.3
2019-02-12T13:27:05.139Z,3.3
2019-02-12T13:42:16.035Z,3.4
2019-02-12T13:57:28.717Z,3.7
2019-02-12T14:12:40.581Z,3.9
2019-02-12T14:27:52.615Z,4.2
2019-02-12T14:42:58.752Z,4.3
2019-02-12T14:58:16.789Z,4.5
2019-02-12T15:13:28.888Z,4.9
2019-02-12T15:28:41.147Z,4.7
2019-02-12T15:43:53.281Z,4.3
2019-02-12T15:59:07.595Z,4.1
2019-02-12T16:14:18.596Z,3.9
2019-02-12T16:29:29.125Z,3.8
2019-02-12T16:44:41.124Z,4
2019-02-12T16:59:49.638Z,3.7
2019-02-12T17:15:04.749Z,3.5
2019-02-12T17:30:16.492Z,3.4
2019-02-12T17:45:28.155Z,3.3
2019-02-12T18:00:30.991Z,3.4
2019-02-12T18:15:51.864Z,3.5
2019-02-12T18:31:03.347Z,3.5
2019-02-12T18:46:15.154Z,3.6
2019-02-12T19:01:26.959Z,3.6
2019-02-12T19:16:38.338Z,3.6
2019-02-12T19:31:50.514Z,3.7
2019-02-12T19:47:02.336Z,3.8
2019-02-12T20:02:14.175Z,3.9
2019-02-12T20:17:20.574Z,4
2019-02-12T20:32:37.997Z,3.9
2019-02-12T20:47:49.858Z,4
2019-02-12T21:03:01.798Z,3.9
2019-02-12T21:18:13.649Z,4.6
2019-02-12T21:33:25.668Z,4.1
2019-02-12T21:48:37.678Z,3.9
2019-02-12T22:03:49.522Z,3.9
2019-02-12T22:19:01.348Z,4.1
2019-02-12T22:34:10.732Z,5
2019-02-12T22:49:25.878Z,4.4
2019-02-12T23:04:37.855Z,4.3
2019-02-12T23:19:49.906Z,4.3
2019-02-12T23:34:57.077Z,4.3
2019-02-12T23:50:13.938Z,4.3
